Nederlandse vliegveldverwachtingen (TAF)

Luchtvaartmeteorologische informatie voor operationeel gebruik en vluchtvoorbereiding is beschikbaar op www.luchtvaartmeteo.nl.

ZCZC
FC200900 EHWO RRC WOENSDRECHT/WOENSDRECHT   NLD   19 m.
TAF EHWO 200935Z 2010/2022 09005KT CAVOK
    PROB30 TEMPO 2017/2022 BKN010=

ZCZC
FT201100 EHBK     MAASTRICHT/MAASTRICHT-AACHEN   NLD   114 m.
TAF EHBK 201103Z 2012/2118 12005KT CAVOK
    BECMG 2012/2015 09010KT
    PROB30 2101/2108 6000=

ZCZC
FT201100 EHGG     GRONINGEN/EELDE   NLD   5 m.
TAF EHGG 201103Z 2012/2118 15003KT 0200 FG VV000
    TEMPO 2012/2109 0800 VV002
    BECMG 2109/2112 09010KT 2000 BR BKN003
    PROB40 2109/2118 0800 FG VV001=

ZCZC
FT201100 EHLE     LELYSTAD/LELYSTAD   NLD   -3 m.
TAF EHLE 201115Z 2012/2118 09005KT CAVOK
    BECMG 2013/2016 2500 BR BKN003
    PROB40 2013/2106 0400 FG BKN001
    BECMG 2021/2024 1200
    BECMG 2106/2109 6000 NSW BKN008
    BECMG 2109/2112 11010KT 9999 BKN012=

ZCZC
FT201100 EHRD     ROTTERDAM/THE HAGUE AIRPORT   NLD   -5 m.
TAF EHRD 201115Z 2012/2118 12006KT CAVOK
    BECMG 2017/2020 2500 BR BKN003
    BECMG 2103/2106 4000 BKN007
    BECMG 2107/2110 9999 NSW SCT012=

ZCZC
FT201100 EHEH     EINDHOVEN/EINDHOVEN   NLD   22 m.
TAF EHEH 201127Z 2012/2118 10006KT 9999 FEW030
    PROB30 TEMPO 2012/2018 BKN008
    PROB40 TEMPO 2020/2108 4000 BR=

ZCZC
FT201100 EHAM AAA AMSTERDAM/SCHIPHOL   NLD   -3 m.
TAF AMD EHAM 201526Z 2015/2118 10007KT CAVOK
    BECMG 2017/2020 0500 FG VV001
    BECMG 2105/2108 1200 BR BKN003
    BECMG 2108/2111 4000 BKN007
    BECMG 2111/2114 9999 NSW SCT020=

ZCZC
FC201300 EHGR RRA GILZE-RIJEN/GILZE-RIJEN   NLD   14 m.
TAF EHGR 201318Z 2014/2102 11006KT 9999 FEW025
    PROB40 TEMPO 2018/2102 BKN008
    PROB30 TEMPO 2018/2102 2500 BR BKN004=

ZCZC
FC201300 EHVK RRC VOLKEL/VOLKEL   NLD   21 m.
TAF EHVK 201351Z 2014/2102 09006KT 9999 FEW030
    TEMPO 2014/2119 BKN008
    PROB30 TEMPO 2017/2102 2000 BR BKN002=

ZCZC
FC201300 EHKD RRE DE KOOY/DE KOOY   NLD   1 m.
TAF EHKD 201401Z 2014/2102 12005KT CAVOK
    BECMG 2015/2018 12010KT 2500 BR BKN002
    PROB40 TEMPO 2015/2102 1000 BKN001=

ZCZC
FC201300 EHLW RRD LEEUWARDEN/LEEUWARDEN   NLD   1 m.
TAF EHLW 201359Z 2014/2102 12006KT 0800 FG BKN000
    PROB40 TEMPO 2014/2023 0300 FG
    PROB30 TEMPO 2023/2102 1500 BR BKN002=

20/11/2019 16.30 uur LT